CFG1369 LGKV-EDDF
Flight info
| Callsign | CFG1369 |
|---|---|
| Flight time | N/A |
| Altitude | 36000 |
| Route | XERIS Y94 EVIVI L863 OKANA DCT NEVAK DCT ADULA DCT GOLVA DCT INLOX DCT SIMBA DCT AKINI T161 DEBHI DEBHI1D |
| Aircraft | A21N/M-SDE2E3FGHIRWXY/LB1 |
Departure
| Time | N/A |
|---|---|
| Airport | Kavala Alexander the Great International Airport (LGKV) |
Arrival
| Time | 2026-04-15 15:06 |
|---|---|
| Airport | Frankfurt Main Airport (EDDF) |
| Time | Latitude | Longitude | Altitude | Speed | Heading |
|---|---|---|---|---|---|
| 2026-04-15 13:47 | 45.97488 | 17.21743 | 33689 ft | 417 kts | 302° |
| 2026-04-15 13:47 | 46.00784 | 17.14888 | 33687 ft | 416 kts | 302° |
| 2026-04-15 13:48 | 46.04076 | 17.08029 | 33685 ft | 416 kts | 302° |
| 2026-04-15 13:48 | 46.07361 | 17.01164 | 33685 ft | 416 kts | 302° |
| 2026-04-15 13:49 | 46.10642 | 16.94298 | 33683 ft | 416 kts | 302° |
| 2026-04-15 13:49 | 46.13923 | 16.87416 | 33687 ft | 416 kts | 302° |
| 2026-04-15 13:50 | 46.17198 | 16.80531 | 33686 ft | 416 kts | 302° |
| 2026-04-15 13:50 | 46.20469 | 16.73641 | 33688 ft | 416 kts | 302° |
| 2026-04-15 13:51 | 46.23734 | 16.66748 | 33688 ft | 415 kts | 302° |
| 2026-04-15 13:51 | 46.26971 | 16.59896 | 33689 ft | 415 kts | 302° |
| 2026-04-15 13:52 | 46.30224 | 16.52991 | 33683 ft | 415 kts | 302° |
| 2026-04-15 13:52 | 46.33471 | 16.46079 | 33692 ft | 415 kts | 302° |
| 2026-04-15 13:53 | 46.36726 | 16.39156 | 33695 ft | 416 kts | 302° |
| 2026-04-15 13:53 | 46.39977 | 16.32208 | 33695 ft | 416 kts | 302° |
| 2026-04-15 13:54 | 46.43222 | 16.25250 | 33613 ft | 417 kts | 302° |
| 2026-04-15 13:54 | 46.46471 | 16.18261 | 33619 ft | 418 kts | 302° |
| 2026-04-15 13:55 | 46.49724 | 16.11251 | 33640 ft | 419 kts | 302° |
| 2026-04-15 13:55 | 46.52960 | 16.04258 | 33663 ft | 421 kts | 302° |
| 2026-04-15 13:56 | 46.56229 | 15.97182 | 33676 ft | 422 kts | 302° |
| 2026-04-15 13:56 | 46.59500 | 15.90082 | 33689 ft | 423 kts | 302° |
| 2026-04-15 13:57 | 46.62777 | 15.82946 | 33696 ft | 424 kts | 302° |
| 2026-04-15 13:57 | 46.66052 | 15.75797 | 33689 ft | 425 kts | 303° |
| 2026-04-15 13:58 | 46.69328 | 15.68626 | 33675 ft | 425 kts | 303° |
| 2026-04-15 13:58 | 46.72826 | 15.61671 | 33662 ft | 426 kts | 308° |
| 2026-04-15 13:59 | 46.76559 | 15.54939 | 33667 ft | 427 kts | 309° |
| 2026-04-15 13:59 | 46.80271 | 15.48232 | 33685 ft | 427 kts | 309° |
| 2026-04-15 14:00 | 46.83998 | 15.41464 | 33703 ft | 428 kts | 309° |
| 2026-04-15 14:00 | 46.87722 | 15.34681 | 33712 ft | 428 kts | 309° |
| 2026-04-15 14:01 | 46.91426 | 15.27913 | 33512 ft | 418 kts | 309° |
| 2026-04-15 14:01 | 46.93222 | 15.24631 | 33254 ft | 407 kts | 309° |
| 2026-04-15 14:01 | 46.94988 | 15.21401 | 33059 ft | 411 kts | 309° |
| 2026-04-15 14:02 | 46.96789 | 15.18099 | 33017 ft | 419 kts | 309° |
| 2026-04-15 14:02 | 47.00472 | 15.11315 | 33060 ft | 430 kts | 309° |
| 2026-04-15 14:02 | 47.02340 | 15.07868 | 33315 ft | 431 kts | 309° |
| 2026-04-15 14:03 | 47.04205 | 15.04430 | 33260 ft | 430 kts | 309° |
| 2026-04-15 14:03 | 47.06062 | 15.01003 | 33057 ft | 429 kts | 309° |
| 2026-04-15 14:03 | 47.07917 | 14.97577 | 32826 ft | 428 kts | 309° |
| 2026-04-15 14:04 | 47.11611 | 14.90709 | 32911 ft | 429 kts | 309° |
| 2026-04-15 14:04 | 47.13475 | 14.87266 | 33037 ft | 427 kts | 310° |
| 2026-04-15 14:04 | 47.15297 | 14.83892 | 32764 ft | 416 kts | 309° |
| 2026-04-15 14:04 | 47.17071 | 14.80598 | 32487 ft | 406 kts | 309° |
| 2026-04-15 14:05 | 47.18800 | 14.77379 | 32218 ft | 395 kts | 309° |
| 2026-04-15 14:05 | 47.20556 | 14.74287 | 31958 ft | 393 kts | 313° |
| 2026-04-15 14:05 | 47.22379 | 14.71295 | 31700 ft | 392 kts | 313° |
| 2026-04-15 14:05 | 47.24201 | 14.68326 | 31442 ft | 390 kts | 313° |
| 2026-04-15 14:06 | 47.26017 | 14.65359 | 31207 ft | 392 kts | 313° |
| 2026-04-15 14:06 | 47.29751 | 14.59240 | 31205 ft | 410 kts | 313° |
| 2026-04-15 14:07 | 47.33600 | 14.52915 | 31350 ft | 424 kts | 313° |
| 2026-04-15 14:07 | 47.37586 | 14.46365 | 31679 ft | 432 kts | 314° |
| 2026-04-15 14:07 | 47.39590 | 14.43063 | 32034 ft | 431 kts | 314° |
| 2026-04-15 14:08 | 47.41583 | 14.39766 | 32392 ft | 430 kts | 314° |
| 2026-04-15 14:08 | 47.43571 | 14.36474 | 32740 ft | 429 kts | 314° |
| 2026-04-15 14:08 | 47.45560 | 14.33183 | 33054 ft | 429 kts | 315° |
| 2026-04-15 14:09 | 47.49531 | 14.26594 | 33140 ft | 429 kts | 315° |
| 2026-04-15 14:09 | 47.53399 | 14.20154 | 33132 ft | 428 kts | 315° |
| 2026-04-15 14:10 | 47.57353 | 14.13554 | 33120 ft | 428 kts | 315° |
| 2026-04-15 14:10 | 47.61305 | 14.06947 | 33131 ft | 428 kts | 316° |
| 2026-04-15 14:11 | 47.65245 | 14.00339 | 33138 ft | 427 kts | 316° |
| 2026-04-15 14:11 | 47.69180 | 13.93729 | 33146 ft | 427 kts | 316° |
| 2026-04-15 14:12 | 47.73101 | 13.87111 | 33154 ft | 426 kts | 317° |
| 2026-04-15 14:12 | 47.77023 | 13.80502 | 33152 ft | 426 kts | 317° |
| 2026-04-15 14:13 | 47.80926 | 13.73892 | 33159 ft | 425 kts | 317° |
| 2026-04-15 14:13 | 47.84823 | 13.67281 | 33165 ft | 424 kts | 317° |
| 2026-04-15 14:14 | 47.88706 | 13.60676 | 33149 ft | 423 kts | 317° |
| 2026-04-15 14:14 | 47.92524 | 13.54154 | 32888 ft | 408 kts | 317° |
| 2026-04-15 14:14 | 47.94369 | 13.50999 | 32571 ft | 398 kts | 317° |
| 2026-04-15 14:15 | 47.96173 | 13.47912 | 32216 ft | 390 kts | 317° |
| 2026-04-15 14:15 | 47.97950 | 13.44871 | 31861 ft | 387 kts | 317° |
| 2026-04-15 14:15 | 47.99712 | 13.41851 | 31510 ft | 385 kts | 317° |
| 2026-04-15 14:15 | 48.01469 | 13.38842 | 31155 ft | 383 kts | 317° |
| 2026-04-15 14:16 | 48.03215 | 13.35844 | 30811 ft | 382 kts | 316° |
| 2026-04-15 14:16 | 48.04950 | 13.32854 | 30473 ft | 380 kts | 316° |
| 2026-04-15 14:16 | 48.06677 | 13.29878 | 30118 ft | 378 kts | 316° |
| 2026-04-15 14:16 | 48.08396 | 13.26913 | 29716 ft | 376 kts | 316° |
| 2026-04-15 14:17 | 48.10112 | 13.23950 | 29314 ft | 374 kts | 315° |
| 2026-04-15 14:17 | 48.11802 | 13.21017 | 28923 ft | 372 kts | 315° |
| 2026-04-15 14:17 | 48.13484 | 13.18091 | 28538 ft | 369 kts | 315° |
| 2026-04-15 14:17 | 48.15160 | 13.15182 | 28157 ft | 367 kts | 315° |
| 2026-04-15 14:18 | 48.16824 | 13.12294 | 27782 ft | 365 kts | 315° |
| 2026-04-15 14:18 | 48.18479 | 13.09417 | 27418 ft | 363 kts | 314° |
| 2026-04-15 14:18 | 48.20125 | 13.06558 | 27084 ft | 362 kts | 314° |
| 2026-04-15 14:18 | 48.21769 | 13.03704 | 26819 ft | 361 kts | 314° |
| 2026-04-15 14:19 | 48.23411 | 13.00854 | 26596 ft | 360 kts | 314° |
| 2026-04-15 14:19 | 48.25068 | 12.98052 | 26390 ft | 359 kts | 315° |
| 2026-04-15 14:19 | 48.26732 | 12.95262 | 26361 ft | 358 kts | 311° |
| 2026-04-15 14:19 | 48.28407 | 12.92446 | 26167 ft | 364 kts | 310° |
| 2026-04-15 14:20 | 48.30084 | 12.89605 | 25962 ft | 363 kts | 310° |
| 2026-04-15 14:20 | 48.31762 | 12.86770 | 25769 ft | 362 kts | 310° |
| 2026-04-15 14:20 | 48.33434 | 12.83940 | 25573 ft | 361 kts | 310° |
| 2026-04-15 14:20 | 48.35077 | 12.81151 | 25376 ft | 360 kts | 310° |
| 2026-04-15 14:21 | 48.36736 | 12.78327 | 25181 ft | 359 kts | 310° |
| 2026-04-15 14:21 | 48.38404 | 12.75483 | 24871 ft | 354 kts | 314° |
| 2026-04-15 14:21 | 48.40007 | 12.72749 | 24685 ft | 352 kts | 314° |
| 2026-04-15 14:21 | 48.41627 | 12.69986 | 24496 ft | 352 kts | 314° |
| 2026-04-15 14:22 | 48.43246 | 12.67222 | 24306 ft | 351 kts | 314° |
| 2026-04-15 14:22 | 48.44859 | 12.64466 | 24118 ft | 350 kts | 313° |
| 2026-04-15 14:22 | 48.46470 | 12.61708 | 23934 ft | 350 kts | 313° |
| 2026-04-15 14:22 | 48.48076 | 12.58953 | 23740 ft | 349 kts | 313° |
| 2026-04-15 14:23 | 48.49675 | 12.56204 | 23521 ft | 349 kts | 313° |
| 2026-04-15 14:23 | 48.51278 | 12.53452 | 23308 ft | 348 kts | 313° |
| 2026-04-15 14:23 | 48.52870 | 12.50715 | 23083 ft | 347 kts | 313° |
| 2026-04-15 14:23 | 48.54458 | 12.47983 | 22863 ft | 345 kts | 313° |
| 2026-04-15 14:24 | 48.56039 | 12.45257 | 22649 ft | 345 kts | 313° |
| 2026-04-15 14:24 | 48.57616 | 12.42538 | 22414 ft | 343 kts | 313° |
| 2026-04-15 14:24 | 48.58656 | 12.40746 | 22294 ft | 343 kts | 313° |
| 2026-04-15 14:24 | 48.60222 | 12.38034 | 22082 ft | 342 kts | 312° |
| 2026-04-15 14:25 | 48.62295 | 12.34443 | 21817 ft | 341 kts | 312° |
| 2026-04-15 14:25 | 48.63348 | 12.32624 | 21659 ft | 340 kts | 312° |
| 2026-04-15 14:25 | 48.65313 | 12.29224 | 21399 ft | 339 kts | 312° |
| 2026-04-15 14:25 | 48.66361 | 12.27404 | 21256 ft | 339 kts | 312° |
| 2026-04-15 14:26 | 48.67905 | 12.24719 | 21032 ft | 338 kts | 312° |
| 2026-04-15 14:26 | 48.69445 | 12.22044 | 20791 ft | 337 kts | 312° |
| 2026-04-15 14:26 | 48.70980 | 12.19374 | 20546 ft | 336 kts | 312° |
| 2026-04-15 14:26 | 48.72511 | 12.16711 | 20301 ft | 335 kts | 312° |
| 2026-04-15 14:27 | 48.74019 | 12.14024 | 20057 ft | 334 kts | 308° |
| 2026-04-15 14:27 | 48.75118 | 12.10941 | 19795 ft | 334 kts | 288° |
| 2026-04-15 14:27 | 48.75605 | 12.07537 | 19560 ft | 334 kts | 280° |
| 2026-04-15 14:27 | 48.75952 | 12.04058 | 19326 ft | 333 kts | 279° |
| 2026-04-15 14:28 | 48.76293 | 12.00592 | 19089 ft | 332 kts | 279° |
| 2026-04-15 14:28 | 48.76645 | 11.97132 | 18854 ft | 331 kts | 279° |
| 2026-04-15 14:28 | 48.77005 | 11.93701 | 18615 ft | 330 kts | 279° |
| 2026-04-15 14:28 | 48.77366 | 11.90275 | 18365 ft | 329 kts | 279° |
| 2026-04-15 14:29 | 48.77727 | 11.86852 | 18096 ft | 327 kts | 279° |
| 2026-04-15 14:29 | 48.78090 | 11.83447 | 17828 ft | 325 kts | 279° |
| 2026-04-15 14:29 | 48.78451 | 11.80067 | 17568 ft | 324 kts | 279° |
| 2026-04-15 14:29 | 48.78810 | 11.76709 | 17302 ft | 322 kts | 279° |
| 2026-04-15 14:30 | 48.79166 | 11.73348 | 17200 ft | 321 kts | 279° |
| 2026-04-15 14:30 | 48.79518 | 11.70003 | 17199 ft | 321 kts | 279° |
| 2026-04-15 14:30 | 48.79871 | 11.66656 | 17214 ft | 321 kts | 279° |
| 2026-04-15 14:30 | 48.80223 | 11.63304 | 17225 ft | 321 kts | 279° |
| 2026-04-15 14:31 | 48.80573 | 11.59951 | 17227 ft | 321 kts | 279° |
| 2026-04-15 14:31 | 48.80922 | 11.56602 | 17227 ft | 321 kts | 279° |
| 2026-04-15 14:31 | 48.81268 | 11.53258 | 17229 ft | 321 kts | 279° |
| 2026-04-15 14:31 | 48.81614 | 11.49909 | 17172 ft | 321 kts | 279° |
| 2026-04-15 14:32 | 48.81953 | 11.46611 | 16971 ft | 320 kts | 279° |
| 2026-04-15 14:32 | 48.82295 | 11.43276 | 16724 ft | 318 kts | 279° |
| 2026-04-15 14:32 | 48.82626 | 11.39967 | 16477 ft | 317 kts | 278° |
| 2026-04-15 14:32 | 48.82955 | 11.36672 | 16222 ft | 315 kts | 278° |
| 2026-04-15 14:33 | 48.83289 | 11.33380 | 15962 ft | 314 kts | 278° |
| 2026-04-15 14:33 | 48.83623 | 11.30116 | 15720 ft | 312 kts | 278° |
| 2026-04-15 14:33 | 48.83953 | 11.26869 | 15473 ft | 310 kts | 278° |
| 2026-04-15 14:33 | 48.84382 | 11.23661 | 15228 ft | 309 kts | 288° |
| 2026-04-15 14:34 | 48.85349 | 11.20768 | 14977 ft | 309 kts | 307° |
| 2026-04-15 14:34 | 48.86839 | 11.18426 | 14745 ft | 308 kts | 316° |
| 2026-04-15 14:34 | 48.88442 | 11.16257 | 14508 ft | 307 kts | 317° |
| 2026-04-15 14:34 | 48.90037 | 11.14105 | 14287 ft | 305 kts | 317° |
| 2026-04-15 14:35 | 48.91623 | 11.11936 | 14563 ft | 306 kts | 317° |
| 2026-04-15 14:35 | 48.93203 | 11.09759 | 14775 ft | 308 kts | 316° |
| 2026-04-15 14:35 | 48.94789 | 11.07558 | 14785 ft | 309 kts | 316° |
| 2026-04-15 14:35 | 48.96371 | 11.05353 | 14610 ft | 308 kts | 316° |
| 2026-04-15 14:36 | 48.97944 | 11.03155 | 14393 ft | 306 kts | 316° |
| 2026-04-15 14:36 | 48.99510 | 11.00958 | 14168 ft | 305 kts | 316° |
| 2026-04-15 14:36 | 49.01069 | 10.98773 | 13923 ft | 304 kts | 316° |
| 2026-04-15 14:36 | 49.02623 | 10.96593 | 13651 ft | 303 kts | 316° |
| 2026-04-15 14:37 | 49.04170 | 10.94419 | 13402 ft | 302 kts | 316° |
| 2026-04-15 14:37 | 49.05711 | 10.92251 | 13145 ft | 301 kts | 316° |
| 2026-04-15 14:37 | 49.07248 | 10.90089 | 12882 ft | 300 kts | 316° |
| 2026-04-15 14:37 | 49.08775 | 10.87938 | 12630 ft | 299 kts | 316° |
| 2026-04-15 14:38 | 49.10301 | 10.85785 | 12372 ft | 297 kts | 316° |
| 2026-04-15 14:38 | 49.11818 | 10.83642 | 12124 ft | 296 kts | 316° |
| 2026-04-15 14:38 | 49.13326 | 10.81507 | 11872 ft | 295 kts | 316° |
| 2026-04-15 14:38 | 49.14834 | 10.79372 | 11623 ft | 295 kts | 316° |
| 2026-04-15 14:39 | 49.16339 | 10.77243 | 11376 ft | 294 kts | 316° |
| 2026-04-15 14:39 | 49.17811 | 10.75155 | 11258 ft | 293 kts | 316° |
| 2026-04-15 14:39 | 49.19305 | 10.73029 | 11242 ft | 293 kts | 316° |
| 2026-04-15 14:39 | 49.20742 | 10.70833 | 11259 ft | 292 kts | 314° |
| 2026-04-15 14:40 | 49.22160 | 10.68585 | 11257 ft | 292 kts | 313° |
| 2026-04-15 14:40 | 49.23576 | 10.66341 | 11261 ft | 292 kts | 313° |
| 2026-04-15 14:40 | 49.24988 | 10.64110 | 11257 ft | 292 kts | 314° |
| 2026-04-15 14:40 | 49.26400 | 10.61873 | 11255 ft | 292 kts | 313° |
| 2026-04-15 14:41 | 49.27812 | 10.59645 | 11249 ft | 292 kts | 314° |
| 2026-04-15 14:41 | 49.29228 | 10.57416 | 11246 ft | 292 kts | 313° |
| 2026-04-15 14:41 | 49.30642 | 10.55183 | 11243 ft | 291 kts | 313° |
| 2026-04-15 14:41 | 49.32051 | 10.52961 | 11239 ft | 292 kts | 314° |
| 2026-04-15 14:42 | 49.33467 | 10.50730 | 11230 ft | 291 kts | 313° |
| 2026-04-15 14:42 | 49.34880 | 10.48495 | 11227 ft | 291 kts | 313° |
| 2026-04-15 14:42 | 49.36246 | 10.46211 | 11221 ft | 291 kts | 308° |
| 2026-04-15 14:42 | 49.37441 | 10.43705 | 11222 ft | 291 kts | 304° |
| 2026-04-15 14:43 | 49.38581 | 10.41194 | 11221 ft | 290 kts | 304° |
| 2026-04-15 14:43 | 49.39734 | 10.38649 | 11220 ft | 291 kts | 304° |
| 2026-04-15 14:43 | 49.40889 | 10.36105 | 11217 ft | 291 kts | 304° |
| 2026-04-15 14:43 | 49.42047 | 10.33563 | 11216 ft | 290 kts | 304° |
| 2026-04-15 14:44 | 49.43204 | 10.31022 | 11217 ft | 291 kts | 304° |
| 2026-04-15 14:44 | 49.44361 | 10.28478 | 11217 ft | 291 kts | 304° |
| 2026-04-15 14:44 | 49.45515 | 10.25936 | 11220 ft | 291 kts | 304° |
| 2026-04-15 14:44 | 49.46673 | 10.23382 | 11219 ft | 291 kts | 304° |
| 2026-04-15 14:45 | 49.47832 | 10.20833 | 11223 ft | 290 kts | 304° |
| 2026-04-15 14:45 | 49.48987 | 10.18288 | 11219 ft | 291 kts | 304° |
| 2026-04-15 14:45 | 49.50190 | 10.15786 | 11218 ft | 291 kts | 314° |
| 2026-04-15 14:45 | 49.51790 | 10.13876 | 11221 ft | 292 kts | 326° |
| 2026-04-15 14:46 | 49.53511 | 10.12212 | 11229 ft | 292 kts | 327° |
| 2026-04-15 14:46 | 49.55238 | 10.10560 | 11223 ft | 293 kts | 327° |
| 2026-04-15 14:46 | 49.56965 | 10.08890 | 11226 ft | 293 kts | 326° |
| 2026-04-15 14:46 | 49.58683 | 10.07202 | 11224 ft | 293 kts | 326° |
| 2026-04-15 14:47 | 49.60394 | 10.05499 | 11222 ft | 293 kts | 326° |
| 2026-04-15 14:47 | 49.62108 | 10.03795 | 11223 ft | 293 kts | 326° |
| 2026-04-15 14:47 | 49.63823 | 10.02101 | 11172 ft | 290 kts | 326° |
| 2026-04-15 14:47 | 49.65530 | 10.00409 | 11075 ft | 307 kts | 326° |
| 2026-04-15 14:48 | 49.67385 | 9.98561 | 11222 ft | 321 kts | 326° |
| 2026-04-15 14:48 | 49.69265 | 9.96688 | 11238 ft | 321 kts | 326° |
| 2026-04-15 14:48 | 49.71141 | 9.94814 | 11231 ft | 322 kts | 326° |
| 2026-04-15 14:48 | 49.73019 | 9.92935 | 11226 ft | 321 kts | 326° |
| 2026-04-15 14:49 | 49.74898 | 9.91052 | 11216 ft | 321 kts | 326° |
| 2026-04-15 14:49 | 49.76776 | 9.89170 | 11215 ft | 321 kts | 326° |
| 2026-04-15 14:49 | 49.78653 | 9.87284 | 11215 ft | 321 kts | 326° |
| 2026-04-15 14:49 | 49.80530 | 9.85395 | 11213 ft | 321 kts | 326° |
| 2026-04-15 14:50 | 49.82403 | 9.83510 | 11209 ft | 321 kts | 326° |
| 2026-04-15 14:50 | 49.84283 | 9.81617 | 11207 ft | 322 kts | 326° |
| 2026-04-15 14:50 | 49.86160 | 9.79724 | 11210 ft | 321 kts | 326° |
| 2026-04-15 14:50 | 49.88009 | 9.77859 | 11206 ft | 322 kts | 326° |
| 2026-04-15 14:51 | 49.89884 | 9.75966 | 11201 ft | 322 kts | 326° |
| 2026-04-15 14:51 | 49.91782 | 9.74050 | 11203 ft | 322 kts | 326° |
| 2026-04-15 14:51 | 49.93631 | 9.72180 | 11204 ft | 322 kts | 325° |
| 2026-04-15 14:51 | 49.95530 | 9.70254 | 11204 ft | 322 kts | 325° |
| 2026-04-15 14:52 | 49.97385 | 9.68371 | 11192 ft | 322 kts | 325° |
| 2026-04-15 14:52 | 49.99260 | 9.66466 | 11198 ft | 322 kts | 325° |
| 2026-04-15 14:52 | 50.01115 | 9.64584 | 11124 ft | 312 kts | 325° |
| 2026-04-15 14:52 | 50.02904 | 9.62766 | 10952 ft | 302 kts | 325° |
| 2026-04-15 14:53 | 50.04653 | 9.60987 | 10656 ft | 299 kts | 325° |
| 2026-04-15 14:53 | 50.06385 | 9.59220 | 10314 ft | 296 kts | 325° |
| 2026-04-15 14:53 | 50.08104 | 9.57469 | 9950 ft | 295 kts | 325° |
| 2026-04-15 14:53 | 50.09815 | 9.55723 | 9548 ft | 293 kts | 325° |
| 2026-04-15 14:54 | 50.11516 | 9.53987 | 9009 ft | 291 kts | 325° |
| 2026-04-15 14:54 | 50.13212 | 9.52256 | 8414 ft | 291 kts | 325° |
| 2026-04-15 14:54 | 50.14911 | 9.50518 | 7809 ft | 292 kts | 325° |
| 2026-04-15 14:54 | 50.16609 | 9.48776 | 7178 ft | 292 kts | 325° |
| 2026-04-15 14:55 | 50.18310 | 9.47028 | 6622 ft | 291 kts | 325° |
| 2026-04-15 14:55 | 50.19999 | 9.45269 | 6100 ft | 291 kts | 322° |
| 2026-04-15 14:55 | 50.21283 | 9.42905 | 5449 ft | 288 kts | 293° |
| 2026-04-15 14:55 | 50.21664 | 9.39900 | 4979 ft | 279 kts | 267° |
| 2026-04-15 14:56 | 50.21333 | 9.37007 | 4784 ft | 265 kts | 251° |
| 2026-04-15 14:56 | 50.20727 | 9.34282 | 4599 ft | 265 kts | 249° |
| 2026-04-15 14:56 | 50.20120 | 9.31568 | 4358 ft | 264 kts | 250° |
| 2026-04-15 14:56 | 50.19545 | 9.28863 | 4092 ft | 265 kts | 251° |
| 2026-04-15 14:57 | 50.18990 | 9.26125 | 3966 ft | 263 kts | 252° |
| 2026-04-15 14:57 | 50.18447 | 9.23402 | 3944 ft | 263 kts | 252° |
| 2026-04-15 14:57 | 50.17910 | 9.20675 | 3969 ft | 263 kts | 252° |
| 2026-04-15 14:57 | 50.17376 | 9.17942 | 3977 ft | 263 kts | 252° |
| 2026-04-15 14:58 | 50.16843 | 9.15212 | 3979 ft | 263 kts | 252° |
| 2026-04-15 14:58 | 50.16310 | 9.12482 | 3983 ft | 263 kts | 252° |
| 2026-04-15 14:58 | 50.15775 | 9.09752 | 3977 ft | 263 kts | 252° |
| 2026-04-15 14:58 | 50.15244 | 9.07027 | 3980 ft | 263 kts | 252° |
| 2026-04-15 14:59 | 50.14896 | 9.05246 | 3976 ft | 254 kts | 252° |
| 2026-04-15 14:59 | 50.14209 | 9.01866 | 3973 ft | 236 kts | 252° |
| 2026-04-15 14:59 | 50.13713 | 8.99510 | 3957 ft | 225 kts | 249° |
| 2026-04-15 14:59 | 50.13362 | 8.98002 | 3951 ft | 214 kts | 249° |
| 2026-04-15 15:00 | 50.12693 | 8.95170 | 3979 ft | 198 kts | 248° |
| 2026-04-15 15:00 | 50.12241 | 8.93263 | 4001 ft | 178 kts | 248° |
| 2026-04-15 15:00 | 50.11832 | 8.91544 | 3993 ft | 159 kts | 248° |
| 2026-04-15 15:00 | 50.11472 | 8.90026 | 3986 ft | 146 kts | 248° |
| 2026-04-15 15:01 | 50.11120 | 8.88547 | 3979 ft | 145 kts | 248° |
| 2026-04-15 15:01 | 50.10768 | 8.87068 | 3980 ft | 145 kts | 248° |
| 2026-04-15 15:01 | 50.10418 | 8.85593 | 3917 ft | 145 kts | 248° |
| 2026-04-15 15:01 | 50.10068 | 8.84121 | 3783 ft | 145 kts | 248° |
| 2026-04-15 15:02 | 50.09717 | 8.82647 | 3608 ft | 145 kts | 248° |
| 2026-04-15 15:02 | 50.09369 | 8.81184 | 3429 ft | 144 kts | 248° |
| 2026-04-15 15:02 | 50.09022 | 8.79721 | 3243 ft | 144 kts | 248° |
| 2026-04-15 15:02 | 50.08676 | 8.78267 | 3039 ft | 143 kts | 248° |
| 2026-04-15 15:03 | 50.08329 | 8.76811 | 2847 ft | 143 kts | 248° |
| 2026-04-15 15:03 | 50.07986 | 8.75367 | 2648 ft | 142 kts | 248° |
| 2026-04-15 15:03 | 50.07667 | 8.73908 | 2455 ft | 142 kts | 254° |
| 2026-04-15 15:03 | 50.07480 | 8.72401 | 2153 ft | 142 kts | 259° |
| 2026-04-15 15:04 | 50.07282 | 8.70907 | 1947 ft | 141 kts | 253° |
| 2026-04-15 15:04 | 50.07010 | 8.69437 | 1776 ft | 141 kts | 251° |
| 2026-04-15 15:04 | 50.06805 | 8.68464 | 1675 ft | 140 kts | 249° |
| 2026-04-15 15:04 | 50.06482 | 8.67030 | 1444 ft | 140 kts | 249° |
| 2026-04-15 15:05 | 50.06046 | 8.65136 | 1201 ft | 140 kts | 249° |
| 2026-04-15 15:05 | 50.05703 | 8.63718 | 971 ft | 140 kts | 249° |
| 2026-04-15 15:05 | 50.05460 | 8.62785 | 888 ft | 141 kts | 248° |
| 2026-04-15 15:05 | 50.05124 | 8.61355 | 700 ft | 140 kts | 251° |
| 2026-04-15 15:06 | 50.04466 | 8.58505 | 414 ft | 139 kts | 247° |
| 2026-04-15 15:06 | 50.04147 | 8.57184 | 373 ft | 110 kts | 251° |
| 2026-04-15 15:06 | 50.03992 | 8.56504 | 366 ft | 34 kts | 259° |
| 2026-04-15 15:07 | 50.04006 | 8.56204 | 366 ft | 5 kts | 284° |
| 2026-04-15 15:07 | 50.04011 | 8.56185 | 367 ft | 9 kts | 288° |
| 2026-04-15 15:07 | 50.04034 | 8.56076 | 368 ft | 12 kts | 294° |
| 2026-04-15 15:07 | 50.04071 | 8.56045 | 372 ft | 6 kts | 352° |
| 2026-04-15 15:08 | 50.04075 | 8.56045 | 372 ft | 0 kts | 357° |
| 2026-04-15 15:08 | 50.04089 | 8.56093 | 368 ft | 13 kts | 72° |
| 2026-04-15 15:08 | 50.04113 | 8.56236 | 370 ft | 15 kts | 70° |
| 2026-04-15 15:08 | 50.04151 | 8.56393 | 367 ft | 16 kts | 71° |
| 2026-04-15 15:09 | 50.04195 | 8.56565 | 369 ft | 18 kts | 70° |
| 2026-04-15 15:09 | 50.04240 | 8.56755 | 368 ft | 19 kts | 69° |
| 2026-04-15 15:09 | 50.04289 | 8.56958 | 370 ft | 21 kts | 69° |
| 2026-04-15 15:09 | 50.04341 | 8.57175 | 372 ft | 22 kts | 70° |
| 2026-04-15 15:10 | 50.04396 | 8.57405 | 368 ft | 23 kts | 70° |
| 2026-04-15 15:10 | 50.04455 | 8.57648 | 370 ft | 25 kts | 70° |
| 2026-04-15 15:10 | 50.04515 | 8.57905 | 372 ft | 26 kts | 70° |
| 2026-04-15 15:10 | 50.04580 | 8.58174 | 370 ft | 27 kts | 69° |
| 2026-04-15 15:11 | 50.04648 | 8.58457 | 372 ft | 29 kts | 70° |
| 2026-04-15 15:11 | 50.04719 | 8.58742 | 372 ft | 18 kts | 53° |
| 2026-04-15 15:11 | 50.04825 | 8.58707 | 370 ft | 12 kts | 349° |
| 2026-04-15 15:11 | 50.04915 | 8.58669 | 369 ft | 14 kts | 348° |
| 2026-04-15 15:12 | 50.04978 | 8.58779 | 370 ft | 15 kts | 69° |
| 2026-04-15 15:12 | 50.05015 | 8.58914 | 369 ft | 12 kts | 69° |
| 2026-04-15 15:12 | 50.05037 | 8.59008 | 370 ft | 7 kts | 71° |
| 2026-04-15 15:12 | 50.05042 | 8.59029 | 368 ft | 0 kts | 71° |
| 2026-04-15 15:13 | 50.05046 | 8.59103 | 374 ft | 9 kts | 104° |
| 2026-04-15 15:13 | 50.05001 | 8.59140 | 370 ft | 8 kts | 160° |
| 2026-04-15 15:13 | 50.04982 | 8.59150 | 370 ft | 0 kts | 161° |